Classifiche di sempre
Migliori tempi personali validi di atleta tra tutti gli eventi e le stagioni. Ogni atleta compare una sola volta per divisione.
Cerca per nome e apri la pagina in cui è classificato questo record di divisione.
104,221 atleti in classifica
| Pos. | Pos. AG | Atleta | Nazionalità | Categoria età | TempoMiglior tempo | Distacco |
|---|---|---|---|---|---|---|
| 85526 | #15772 | Magali LachanceCAN · W 35-39 · AG #15772 | CAN | W 35-39 | 1:54:21 | +74:45 |
| 85527 | #2920 | ANTOINETTE MORRISRSA · W 50-54 · AG #2920 | RSA | W 50-54 | 1:54:21 | +74:45 |
| 85528 | #20828 | Allisha van AstenNED · W 25-29 · AG #20828 | NED | W 25-29 | 1:54:21 | +74:45 |
| 85529 | #20829 | Isabeau Marie RotheGER · W 25-29 · AG #20829 | GER | W 25-29 | 1:54:21 | +74:45 |
| 85530 | #20544 | Amber WeaverGBR · W 30-34 · AG #20544 | GBR | W 30-34 | 1:54:21 | +74:45 |
| 85531 | #20545 | Claire ChipchakUSA · W 30-34 · AG #20545 | USA | W 30-34 | 1:54:22 | +74:46 |
| 85532 | #11024 | 蕴立 徐CHN · W 40-44 · AG #11024 | CHN | W 40-44 | 1:54:22 | +74:46 |
| 85533 | #20546 | Issa Erika NeridaPHI · W 30-34 · AG #20546 | PHI | W 30-34 | 1:54:22 | +74:46 |
| 85534 | #6164 | Kellie MillardGBR · W 45-49 · AG #6164 | GBR | W 45-49 | 1:54:22 | +74:46 |
| 85535 | #11020 | Lucy GibsonGBR · W 40-44 · AG #11020 | GBR | W 40-44 | 1:54:22 | +74:46 |
| 85536 | #15773 | Natasha JacksonGBR · W 35-39 · AG #15773 | GBR | W 35-39 | 1:54:22 | +74:46 |
| 85537 | #11021 | Yuet Peng KhorMAS · W 40-44 · AG #11021 | MAS | W 40-44 | 1:54:22 | +74:46 |
| 85538 | #15774 | Gifty DemCAN · W 35-39 · AG #15774 | CAN | W 35-39 | 1:54:22 | +74:46 |
| 85539 | #20830 | Sarahanne CreekmoreUSA · W 25-29 · AG #20830 | USA | W 25-29 | 1:54:22 | +74:46 |
| 85540 | #20547 | Mj CaroUSA · W 30-34 · AG #20547 | USA | W 30-34 | 1:54:22 | +74:46 |
| 85541 | #11022 | Soraya KoelemanNED · W 40-44 · AG #11022 | NED | W 40-44 | 1:54:22 | +74:46 |
| 85542 | #20548 | Katarzyna SterczewskaPOL · W 30-34 · AG #20548 | POL | W 30-34 | 1:54:22 | +74:46 |
| 85543 | #15775 | Jamie OlearyUSA · W 35-39 · AG #15775 | USA | W 35-39 | 1:54:22 | +74:46 |
| 85544 | #15776 | Cheryl DaleGBR · W 35-39 · AG #15776 | GBR | W 35-39 | 1:54:22 | +74:46 |
| 85545 | #1079 | Jo FarrellyGBR · W 55-59 · AG #1079 | GBR | W 55-59 | 1:54:22 | +74:46 |
| 85546 | #15777 | Rosaline SiebringAUS · W 35-39 · AG #15777 | AUS | W 35-39 | 1:54:22 | +74:46 |
| 85547 | #20831 | Koyel PrinceAUS · W 25-29 · AG #20831 | AUS | W 25-29 | 1:54:22 | +74:46 |
| 85548 | #11023 | Aggy YorkGBR · W 40-44 · AG #11023 | GBR | W 40-44 | 1:54:22 | +74:46 |
| 85549 | #15778 | Xinwei Ivanna GohSIN · W 35-39 · AG #15778 | SIN | W 35-39 | 1:54:22 | +74:46 |
| 85550 | #15779 | Kailey WiggersUSA · W 35-39 · AG #15779 | USA | W 35-39 | 1:54:22 | +74:46 |
Pagina 3,422 di 4,169